^^
Saratoga-Weather Station Historical Data
Daily Summary for June 6, 2021 Units:  Both    English   Metric
Daily Weekly Monthly Yearly Custom
  High: Low: Average:
Temperature: 70.3 °F /  21.3 °C 59.2 °F /  15.1 °C 64 °F /  17.8 °C
Dew Point: 62.1 °F /  16.7 °C 54.7 °F /  12.6 °C 59 °F /  15 °C
Humidity: 97% 59% 85%
Wind Speed: 13mph /  20.9km/h - 1.6mph /  2.6km/h
Wind Gust: 16mph /  25.7km/h - -
Wind- - SSW
Pressure: 29.8 in /  1010.2 hPa 29.7 in /  1005.1 hPa -
Precipitation: 0.71 in /  18.0 mm    
Historical Graphs
 
 
Tabular Data for June 6, 2021
Time Temperature Dew Point Pressure Wind Wind Speed Wind Gust Humidity Rainfall Rate (Hourly) solar
00:03 62.6 °F /  17 °C 60.6 °F /  15.9 °C 29.8in /  1007.5hPa Calm     93% 0in /  0.0mm 0 W/m2
00:08 62.4 °F /  16.9 °C 60.4 °F /  15.8 °C 29.8in /  1007.5hPa Calm     93% 0in /  0.0mm 0 W/m2
00:13 62.4 °F /  16.9 °C 60.4 °F /  15.8 °C 29.8in /  1007.5hPa Calm     93% 0in /  0.0mm 0 W/m2
00:18 62.4 °F /  16.9 °C 60.4 °F /  15.8 °C 29.8in /  1007.5hPa Calm     93% 0in /  0.0mm 0 W/m2
00:23 62.2 °F /  16.8 °C 60.3 °F /  15.7 °C 29.8in /  1007.5hPa Calm     93% 0in /  0.0mm 0 W/m2
00:28 62.2 °F /  16.8 °C 60.3 °F /  15.7 °C 29.7in /  1007.1hPa Calm     93% 0in /  0.0mm 0 W/m2
00:33 62.1 °F /  16.7 °C 60.1 °F /  15.6 °C 29.7in /  1007.1hPa Calm     93% 0in /  0.0mm 0 W/m2
00:38 62.1 °F /  16.7 °C 60.3 °F /  15.7 °C 29.7in /  1007.1hPa Calm     94% 0in /  0.0mm 0 W/m2
00:43 62.1 °F /  16.7 °C 60.3 °F /  15.7 °C 29.7in /  1007.1hPa Calm     94% 0in /  0.0mm 0 W/m2
00:48 62.1 °F /  16.7 °C 60.3 °F /  15.7 °C 29.7in /  1007.1hPa Calm     94% 0in /  0.0mm 0 W/m2
00:53 62.1 °F /  16.7 °C 60.3 °F /  15.7 °C 29.7in /  1006.8hPa Calm     94% 0in /  0.0mm 0 W/m2
00:58 61.9 °F /  16.6 °C 60.1 °F /  15.6 °C 29.7in /  1006.8hPa Calm     94% 0in /  0.0mm 0 W/m2
01:03 61.9 °F /  16.6 °C 60.1 °F /  15.6 °C 29.7in /  1006.8hPa Calm     94% 0in /  0.0mm 0 W/m2
01:08 61.7 °F /  16.5 °C 59.9 °F /  15.5 °C 29.7in /  1006.8hPa Calm     94% 0in /  0.0mm 0 W/m2
01:13 61.5 °F /  16.4 °C 59.7 °F /  15.4 °C 29.7in /  1006.8hPa Calm     94% 0in /  0.0mm 0 W/m2
01:18 61.3 °F /  16.3 °C 59.5 °F /  15.3 °C 29.7in /  1006.4hPa Calm     94% 0in /  0.0mm 0 W/m2
01:23 61.3 °F /  16.3 °C 59.5 °F /  15.3 °C 29.7in /  1006.4hPa Calm     94% 0in /  0.0mm 0 W/m2
01:28 61.3 °F /  16.3 °C 59.5 °F /  15.3 °C 29.7in /  1006.4hPa Calm     94% 0in /  0.0mm 0 W/m2
01:33 61.3 °F /  16.3 °C 59.5 °F /  15.3 °C 29.7in /  1006.4hPa Calm     94% 0in /  0.0mm 0 W/m2
01:38 61.2 °F /  16.2 °C 59.7 °F /  15.4 °C 29.7in /  1006.4hPa Calm     95% 0in /  0.0mm 0 W/m2
01:43 61.2 °F /  16.2 °C 59.4 °F /  15.2 °C 29.7in /  1006.4hPa Calm     94% 0in /  0.0mm 0 W/m2
01:49 61 °F /  16.1 °C 59.5 °F /  15.3 °C 29.7in /  1006.4hPa Calm     95% 0in /  0.0mm 0 W/m2
01:54 60.6 °F /  15.9 °C 59.2 °F /  15.1 °C 29.7in /  1006.4hPa Calm     95% 0in /  0.0mm 0 W/m2
01:59 60.6 °F /  15.9 °C 58.8 °F /  14.9 °C 29.7in /  1006.4hPa Calm     94% 0in /  0.0mm 0 W/m2
02:04 60.4 °F /  15.8 °C 59 °F /  15 °C 29.7in /  1006.4hPa Calm     95% 0in /  0.0mm 0 W/m2
02:09 60.4 °F /  15.8 °C 59 °F /  15 °C 29.7in /  1006.4hPa WNW 0.9mph /  1.4km/h 1mph /  1.6km/h 95% 0in /  0.0mm 0 W/m2
02:14 60.4 °F /  15.8 °C 59 °F /  15 °C 29.7in /  1006.1hPa Calm     95% 0in /  0.0mm 0 W/m2
02:19 60.3 °F /  15.7 °C 58.8 °F /  14.9 °C 29.7in /  1006.1hPa Calm     95% 0in /  0.0mm 0 W/m2
02:24 60.3 °F /  15.7 °C 58.8 °F /  14.9 °C 29.7in /  1006.1hPa Calm     95% 0in /  0.0mm 0 W/m2
02:29 60.3 °F /  15.7 °C 58.8 °F /  14.9 °C 29.7in /  1005.8hPa Calm     95% 0in /  0.0mm 0 W/m2
02:34 60.1 °F /  15.6 °C 58.6 °F /  14.8 °C 29.7in /  1005.8hPa Calm     95% 0in /  0.0mm 0 W/m2
02:39 60.1 °F /  15.6 °C 58.6 °F /  14.8 °C 29.7in /  1005.8hPa Calm     95% 0in /  0.0mm 0 W/m2
02:44 60.1 °F /  15.6 °C 58.6 °F /  14.8 °C 29.7in /  1005.8hPa Calm     95% 0in /  0.0mm 0 W/m2
02:49 59.9 °F /  15.5 °C 58.5 °F /  14.7 °C 29.7in /  1005.8hPa Calm     95% 0in /  0.0mm 0 W/m2
02:54 59.9 °F /  15.5 °C 58.5 °F /  14.7 °C 29.7in /  1005.8hPa Calm     95% 0in /  0.0mm 0 W/m2
02:59 59.7 °F /  15.4 °C 58.3 °F /  14.6 °C 29.7in /  1005.8hPa Calm     95% 0in /  0.0mm 0 W/m2
03:04 59.7 °F /  15.4 °C 58.6 °F /  14.8 °C 29.7in /  1005.8hPa Calm     96% 0in /  0.0mm 0 W/m2
03:09 59.5 °F /  15.3 °C 58.1 °F /  14.5 °C 29.7in /  1005.8hPa Calm     95% 0in /  0.0mm 0 W/m2
03:14 59.5 °F /  15.3 °C 58.1 °F /  14.5 °C 29.7in /  1005.8hPa Calm     95% 0in /  0.0mm 0 W/m2
03:19 59.5 °F /  15.3 °C 58.1 °F /  14.5 °C 29.7in /  1005.4hPa Calm     95% 0in /  0.0mm 0 W/m2
03:24 59.5 °F /  15.3 °C 58.5 °F /  14.7 °C 29.7in /  1005.8hPa Calm     96% 0in /  0.0mm 0 W/m2
03:29 59.5 °F /  15.3 °C 58.5 °F /  14.7 °C 29.7in /  1005.8hPa Calm     96% 0in /  0.0mm 0 W/m2
03:34 59.5 °F /  15.3 °C 58.5 °F /  14.7 °C 29.7in /  1005.4hPa Calm     96% 0in /  0.0mm 0 W/m2
03:39 59.5 °F /  15.3 °C 58.5 °F /  14.7 °C 29.7in /  1005.4hPa Calm     96% 0in /  0.0mm 0 W/m2
03:44 59.5 °F /  15.3 °C 58.5 °F /  14.7 °C 29.7in /  1005.4hPa Calm     96% 0in /  0.0mm 0 W/m2
03:49 59.4 °F /  15.2 °C 58.3 °F /  14.6 °C 29.7in /  1005.4hPa Calm     96% 0in /  0.0mm 0 W/m2
03:54 59.4 °F /  15.2 °C 58.3 °F /  14.6 °C 29.7in /  1005.4hPa Calm     96% 0in /  0.0mm 0 W/m2
03:59 59.4 °F /  15.2 °C 58.3 °F /  14.6 °C 29.7in /  1005.4hPa Calm     96% 0in /  0.0mm 0 W/m2
04:04 59.4 °F /  15.2 °C 58.3 °F /  14.6 °C 29.7in /  1005.4hPa Calm     96% 0in /  0.0mm 0 W/m2
04:09 59.2 °F /  15.1 °C 58.1 °F /  14.5 °C 29.7in /  1005.4hPa Calm     96% 0in /  0.0mm 0 W/m2
04:14 59.2 °F /  15.1 °C 58.1 °F /  14.5 °C 29.7in /  1005.4hPa Calm     96% 0in /  0.0mm 0 W/m2
04:19 59.2 °F /  15.1 °C 58.1 °F /  14.5 °C 29.7in /  1005.4hPa Calm   2mph /  3.2km/h 96% 0in /  0.0mm 0 W/m2
04:24 59.2 °F /  15.1 °C 58.1 °F /  14.5 °C 29.7in /  1005.4hPa Calm     96% 0in /  0.0mm 0 W/m2
04:29 59.2 °F /  15.1 °C 58.1 °F /  14.5 °C 29.7in /  1005.4hPa Calm   1mph /  1.6km/h 96% 0in /  0.0mm 0 W/m2
04:34 59.4 °F /  15.2 °C 58.3 °F /  14.6 °C 29.7in /  1005.4hPa Calm   1mph /  1.6km/h 96% 0in /  0.0mm 0 W/m2
04:39 59.4 °F /  15.2 °C 58.3 °F /  14.6 °C 29.7in /  1005.4hPa Calm     96% 0in /  0.0mm 0 W/m2
04:44 59.4 °F /  15.2 °C 58.3 °F /  14.6 °C 29.7in /  1005.1hPa Calm     96% 0in /  0.0mm 0 W/m2
04:49 59.4 °F /  15.2 °C 58.3 °F /  14.6 °C 29.7in /  1005.1hPa Calm     96% 0in /  0.0mm 0 W/m2
04:54 59.5 °F /  15.3 °C 58.5 °F /  14.7 °C 29.7in /  1005.1hPa Calm     96% 0in /  0.0mm 0 W/m2
04:59 59.5 °F /  15.3 °C 58.5 °F /  14.7 °C 29.7in /  1005.1hPa Calm   1mph /  1.6km/h 96% 0in /  0.0mm 0 W/m2
05:04 59.7 °F /  15.4 °C 58.6 °F /  14.8 °C 29.7in /  1005.1hPa Calm   2mph /  3.2km/h 96% 0in /  0.0mm 0 W/m2
05:09 59.7 °F /  15.4 °C 58.6 °F /  14.8 °C 29.7in /  1005.1hPa West 3mph /  4.8km/h 3mph /  4.8km/h 96% 0in /  0.0mm 0 W/m2
05:14 59.7 °F /  15.4 °C 58.6 °F /  14.8 °C 29.7in /  1005.4hPa Calm   2mph /  3.2km/h 96% 0in /  0.0mm 0 W/m2
05:19 59.9 °F /  15.5 °C 58.8 °F /  14.9 °C 29.7in /  1005.4hPa West 3mph /  4.8km/h 3mph /  4.8km/h 96% 0in /  0.0mm 0 W/m2
05:24 60.1 °F /  15.6 °C 59.2 °F /  15.1 °C 29.7in /  1005.4hPa West 0.9mph /  1.4km/h 1mph /  1.6km/h 97% 0in /  0.0mm 0 W/m2
05:29 60.1 °F /  15.6 °C 59.2 °F /  15.1 °C 29.7in /  1005.8hPa Calm     97% 0.01in /  0.2mm 0 W/m2
05:35 60.1 °F /  15.6 °C 59.2 °F /  15.1 °C 29.7in /  1005.8hPa Calm     97% 0.02in /  0.5mm 0 W/m2
05:40 60.3 °F /  15.7 °C 59.4 °F /  15.2 °C 29.7in /  1005.8hPa Calm     97% 0.04in /  1.0mm 0 W/m2
05:45 60.4 °F /  15.8 °C 59.5 °F /  15.3 °C 29.7in /  1006.1hPa Calm     97% 0.06in /  1.5mm 0 W/m2
05:50 60.6 °F /  15.9 °C 59.7 °F /  15.4 °C 29.7in /  1006.1hPa Calm     97% 0.07in /  1.8mm 0 W/m2
05:55 60.6 °F /  15.9 °C 59.7 °F /  15.4 °C 29.7in /  1006.1hPa Calm     97% 0.09in /  2.3mm 0 W/m2
06:00 60.6 °F /  15.9 °C 59.7 °F /  15.4 °C 29.7in /  1005.8hPa Calm     97% 0.11in /  2.8mm 0 W/m2
06:05 60.8 °F /  16 °C 59.9 °F /  15.5 °C 29.7in /  1005.8hPa Calm     97% 0.13in /  3.3mm 0 W/m2
06:10 60.6 °F /  15.9 °C 59.7 °F /  15.4 °C 29.7in /  1005.4hPa Calm     97% 0.14in /  3.6mm 0 W/m2
06:15 60.6 °F /  15.9 °C 59.7 °F /  15.4 °C 29.7in /  1005.1hPa Calm     97% 0.15in /  3.8mm 5 W/m2
06:20 60.6 °F /  15.9 °C 59.7 °F /  15.4 °C 29.7in /  1005.8hPa Calm   2mph /  3.2km/h 97% 0.15in /  3.8mm 7 W/m2
06:25 60.6 °F /  15.9 °C 59.7 °F /  15.4 °C 29.7in /  1006.1hPa Calm     97% 0.15in /  3.8mm 0 W/m2
06:30 60.6 °F /  15.9 °C 59.7 °F /  15.4 °C 29.7in /  1006.4hPa Calm   2mph /  3.2km/h 97% 0.14in /  3.6mm 0 W/m2
06:35 60.8 °F /  16 °C 59.9 °F /  15.5 °C 29.7in /  1006.4hPa Calm     97% 0.13in /  3.3mm 5 W/m2
06:40 61 °F /  16.1 °C 60.1 °F /  15.6 °C 29.7in /  1007.1hPa NW 0.9mph /  1.4km/h 3mph /  4.8km/h 97% 0.13in /  3.3mm 0 W/m2
06:45 61.5 °F /  16.4 °C 60.6 °F /  15.9 °C 29.7in /  1007.1hPa West 6mph /  9.7km/h 6mph /  9.7km/h 97% 0.22in /  5.6mm 0 W/m2
06:50 61.9 °F /  16.6 °C 61 °F /  16.1 °C 29.7in /  1006.8hPa WNW 6.9mph /  11.1km/h 8mph /  12.9km/h 97% 0.33in /  8.4mm 0 W/m2
06:55 61.9 °F /  16.6 °C 61 °F /  16.1 °C 29.7in /  1006.4hPa West 0.9mph /  1.4km/h 7mph /  11.3km/h 97% 0.35in /  8.9mm 9 W/m2
07:00 61.5 °F /  16.4 °C 60.6 °F /  15.9 °C 29.7in /  1006.4hPa West 2.9mph /  4.7km/h 6mph /  9.7km/h 97% 0.34in /  8.6mm 12 W/m2
07:05 61.5 °F /  16.4 °C 60.4 °F /  15.8 °C 29.7in /  1006.4hPa West 2.9mph /  4.7km/h 7mph /  11.3km/h 96% 0.33in /  8.4mm 16 W/m2
07:10 61.5 °F /  16.4 °C 60.4 °F /  15.8 °C 29.7in /  1006.4hPa WNW 4mph /  6.4km/h 4mph /  6.4km/h 96% 0.31in /  7.9mm 18 W/m2
07:15 61.5 °F /  16.4 °C 60.4 °F /  15.8 °C 29.7in /  1006.1hPa NW 0.9mph /  1.4km/h 4mph /  6.4km/h 96% 0.31in /  7.9mm 25 W/m2
07:20 61.5 °F /  16.4 °C 60.4 °F /  15.8 °C 29.7in /  1006.1hPa Calm   2mph /  3.2km/h 96% 0.31in /  7.9mm 16 W/m2
07:25 61.7 °F /  16.5 °C 60.6 °F /  15.9 °C 29.7in /  1006.1hPa Calm   1mph /  1.6km/h 96% 0.31in /  7.9mm 16 W/m2
07:30 61.7 °F /  16.5 °C 60.6 °F /  15.9 °C 29.7in /  1006.4hPa WNW 0.9mph /  1.4km/h 2mph /  3.2km/h 96% 0.31in /  7.9mm 19 W/m2
07:35 61.9 °F /  16.6 °C 60.8 °F /  16 °C 29.7in /  1006.8hPa Calm     96% 0.31in /  7.9mm 9 W/m2
07:40 61.9 °F /  16.6 °C 60.8 °F /  16 °C 29.7in /  1006.1hPa North 0.9mph /  1.4km/h 2mph /  3.2km/h 96% 0.31in /  7.9mm 11 W/m2
07:45 61.9 °F /  16.6 °C 60.8 °F /  16 °C 29.7in /  1006.4hPa Calm   1mph /  1.6km/h 96% 0.23in /  5.8mm 14 W/m2
07:50 61.9 °F /  16.6 °C 60.8 °F /  16 °C 29.7in /  1006.4hPa Calm   1mph /  1.6km/h 96% 0.12in /  3.0mm 16 W/m2
07:55 61.9 °F /  16.6 °C 60.8 °F /  16 °C 29.7in /  1006.8hPa Calm   2mph /  3.2km/h 96% 0.09in /  2.3mm 9 W/m2
08:00 61.9 °F /  16.6 °C 61 °F /  16.1 °C 29.7in /  1006.8hPa NE 2mph /  3.2km/h 3mph /  4.8km/h 97% 0.1in /  2.5mm 11 W/m2
08:05 61.9 °F /  16.6 °C 60.8 °F /  16 °C 29.7in /  1006.8hPa East 2mph /  3.2km/h 2mph /  3.2km/h 96% 0.12in /  3.0mm 11 W/m2
08:10 61.9 °F /  16.6 °C 60.8 °F /  16 °C 29.7in /  1006.4hPa Calm   2mph /  3.2km/h 96% 0.15in /  3.8mm 12 W/m2
08:15 61.9 °F /  16.6 °C 60.8 °F /  16 °C 29.7in /  1006.8hPa Calm     96% 0.16in /  4.1mm 19 W/m2
08:20 61.9 °F /  16.6 °C 60.8 °F /  16 °C 29.7in /  1006.4hPa NE 0.9mph /  1.4km/h 2mph /  3.2km/h 96% 0.17in /  4.3mm 19 W/m2
08:25 61.9 °F /  16.6 °C 60.8 °F /  16 °C 29.7in /  1006.4hPa NE 0.9mph /  1.4km/h 2mph /  3.2km/h 96% 0.19in /  4.8mm 23 W/m2
08:30 61.9 °F /  16.6 °C 60.8 °F /  16 °C 29.7in /  1006.4hPa East 2mph /  3.2km/h 3mph /  4.8km/h 96% 0.19in /  4.8mm 16 W/m2
08:35 61.9 °F /  16.6 °C 60.8 °F /  16 °C 29.7in /  1006.4hPa ENE 2mph /  3.2km/h 2mph /  3.2km/h 96% 0.2in /  5.1mm 14 W/m2
08:40 61.9 °F /  16.6 °C 60.8 °F /  16 °C 29.7in /  1005.8hPa Calm   2mph /  3.2km/h 96% 0.2in /  5.1mm 19 W/m2
08:45 61.9 °F /  16.6 °C 60.8 °F /  16 °C 29.7in /  1006.1hPa NE 2mph /  3.2km/h 2mph /  3.2km/h 96% 0.18in /  4.6mm 58 W/m2
08:50 62.1 °F /  16.7 °C 61.2 °F /  16.2 °C 29.7in /  1006.4hPa East 2mph /  3.2km/h 2mph /  3.2km/h 97% 0.17in /  4.3mm 84 W/m2
08:55 62.2 °F /  16.8 °C 61.3 °F /  16.3 °C 29.7in /  1006.4hPa NE 2mph /  3.2km/h 2mph /  3.2km/h 97% 0.16in /  4.1mm 132 W/m2
09:00 62.2 °F /  16.8 °C 61.3 °F /  16.3 °C 29.7in /  1006.4hPa NE 0.9mph /  1.4km/h 2mph /  3.2km/h 97% 0.14in /  3.6mm 111 W/m2
09:05 62.4 °F /  16.9 °C 61.5 °F /  16.4 °C 29.7in /  1006.4hPa ENE 2mph /  3.2km/h 3mph /  4.8km/h 97% 0.11in /  2.8mm 97 W/m2
09:10 62.6 °F /  17 °C 61.7 °F /  16.5 °C 29.7in /  1006.8hPa NE 0.9mph /  1.4km/h 2mph /  3.2km/h 97% 0.09in /  2.3mm 69 W/m2
09:15 62.4 °F /  16.9 °C 61.5 °F /  16.4 °C 29.7in /  1006.4hPa ENE 2mph /  3.2km/h 3mph /  4.8km/h 97% 0.08in /  2.0mm 76 W/m2
09:20 62.6 °F /  17 °C 61.7 °F /  16.5 °C 29.7in /  1006.4hPa East 0.9mph /  1.4km/h 2mph /  3.2km/h 97% 0.06in /  1.5mm 105 W/m2
09:25 62.8 °F /  17.1 °C 61.9 °F /  16.6 °C 29.7in /  1007.1hPa Calm   1mph /  1.6km/h 97% 0.05in /  1.3mm 97 W/m2
09:30 62.6 °F /  17 °C 61.7 °F /  16.5 °C 29.7in /  1007.1hPa Calm   3mph /  4.8km/h 97% 0.04in /  1.0mm 74 W/m2
09:35 62.4 °F /  16.9 °C 61.5 °F /  16.4 °C 29.8in /  1007.5hPa Calm   3mph /  4.8km/h 97% 0.03in /  0.8mm 60 W/m2
09:40 62.4 °F /  16.9 °C 61.5 °F /  16.4 °C 29.8in /  1007.5hPa Calm   3mph /  4.8km/h 97% 0.02in /  0.5mm 58 W/m2
09:45 62.4 °F /  16.9 °C 61.3 °F /  16.3 °C 29.8in /  1007.5hPa Calm   3mph /  4.8km/h 96% 0.02in /  0.5mm 70 W/m2
09:50 62.4 °F /  16.9 °C 61.3 °F /  16.3 °C 29.8in /  1007.5hPa ENE 0.9mph /  1.4km/h 5mph /  8km/h 96% 0.02in /  0.5mm 79 W/m2
09:55 62.2 °F /  16.8 °C 61.2 °F /  16.2 °C 29.8in /  1007.5hPa WNW 6mph /  9.7km/h 7mph /  11.3km/h 96% 0.02in /  0.5mm 79 W/m2
10:00 62.1 °F /  16.7 °C 60.6 °F /  15.9 °C 29.7in /  1007.1hPa ENE 2mph /  3.2km/h 4mph /  6.4km/h 95% 0.02in /  0.5mm 88 W/m2
10:05 62.2 °F /  16.8 °C 60.8 °F /  16 °C 29.8in /  1007.5hPa WSW 2.9mph /  4.7km/h 6mph /  9.7km/h 95% 0.02in /  0.5mm 128 W/m2
10:10 62.2 °F /  16.8 °C 60.8 °F /  16 °C 29.7in /  1007.1hPa Calm   2mph /  3.2km/h 95% 0.02in /  0.5mm 128 W/m2
10:15 62.4 °F /  16.9 °C 61 °F /  16.1 °C 29.8in /  1007.5hPa ENE 0.9mph /  1.4km/h 6mph /  9.7km/h 95% 0.02in /  0.5mm 123 W/m2
10:20 62.4 °F /  16.9 °C 60.6 °F /  15.9 °C 29.8in /  1007.5hPa NNE 0.9mph /  1.4km/h 4mph /  6.4km/h 94% 0.02in /  0.5mm 139 W/m2
10:25 62.8 °F /  17.1 °C 61 °F /  16.1 °C 29.8in /  1007.5hPa WNW 2.9mph /  4.7km/h 4mph /  6.4km/h 94% 0.02in /  0.5mm 88 W/m2
10:30 62.8 °F /  17.1 °C 61 °F /  16.1 °C 29.8in /  1007.5hPa Calm   2mph /  3.2km/h 94% 0.02in /  0.5mm 88 W/m2
10:35 63 °F /  17.2 °C 61.2 °F /  16.2 °C 29.8in /  1007.8hPa NW 2mph /  3.2km/h 4mph /  6.4km/h 94% 0.02in /  0.5mm 163 W/m2
10:40 62.8 °F /  17.1 °C 60.8 °F /  16 °C 29.8in /  1008.1hPa NNW 4mph /  6.4km/h 4mph /  6.4km/h 93% 0.01in /  0.2mm 193 W/m2
10:45 62.8 °F /  17.1 °C 60.4 °F /  15.8 °C 29.8in /  1008.1hPa North 0.9mph /  1.4km/h 3mph /  4.8km/h 92% 0.01in /  0.2mm 206 W/m2
10:50 63 °F /  17.2 °C 60.6 °F /  15.9 °C 29.8in /  1008.1hPa NW 8.1mph /  13km/h 9mph /  14.5km/h 92% 0in /  0.0mm 211 W/m2
10:55 63 °F /  17.2 °C 59.9 °F /  15.5 °C 29.8in /  1008.1hPa NNW 2mph /  3.2km/h 8mph /  12.9km/h 90% 0in /  0.0mm 213 W/m2
11:00 63 °F /  17.2 °C 59.9 °F /  15.5 °C 29.8in /  1008.1hPa NNW 2mph /  3.2km/h 9mph /  14.5km/h 90% 0in /  0.0mm 251 W/m2
11:05 63 °F /  17.2 °C 59.9 °F /  15.5 °C 29.8in /  1007.8hPa WNW 2.9mph /  4.7km/h 5mph /  8km/h 90% 0in /  0.0mm 264 W/m2
11:10 63 °F /  17.2 °C 59.7 °F /  15.4 °C 29.8in /  1008.1hPa NW 0.9mph /  1.4km/h 3mph /  4.8km/h 89% 0in /  0.0mm 294 W/m2
11:15 63.1 °F /  17.3 °C 60.1 °F /  15.6 °C 29.8in /  1008.1hPa NW 2mph /  3.2km/h 4mph /  6.4km/h 90% 0in /  0.0mm 283 W/m2
11:20 63.3 °F /  17.4 °C 60.1 °F /  15.6 °C 29.8in /  1008.1hPa NNE 0.9mph /  1.4km/h 5mph /  8km/h 89% 0in /  0.0mm 274 W/m2
11:25 63.3 °F /  17.4 °C 60.3 °F /  15.7 °C 29.8in /  1008.1hPa NNE 2mph /  3.2km/h 3mph /  4.8km/h 90% 0in /  0.0mm 403 W/m2
11:30 63.7 °F /  17.6 °C 60.4 °F /  15.8 °C 29.8in /  1008.1hPa North 4mph /  6.4km/h 5mph /  8km/h 89% 0in /  0.0mm 350 W/m2
11:35 63.9 °F /  17.7 °C 60.6 °F /  15.9 °C 29.8in /  1008.1hPa ENE 0.9mph /  1.4km/h 3mph /  4.8km/h 89% 0in /  0.0mm 334 W/m2
11:40 64.2 °F /  17.9 °C 61 °F /  16.1 °C 29.8in /  1008.5hPa West 2mph /  3.2km/h 3mph /  4.8km/h 89% 0in /  0.0mm 526 W/m2
11:45 64.6 °F /  18.1 °C 61.3 °F /  16.3 °C 29.8in /  1008.5hPa WSW 4mph /  6.4km/h 7mph /  11.3km/h 89% 0in /  0.0mm 541 W/m2
11:50 64.9 °F /  18.3 °C 61 °F /  16.1 °C 29.8in /  1008.5hPa WSW 0.9mph /  1.4km/h 7mph /  11.3km/h 87% 0in /  0.0mm 1069 W/m2
11:56 65.5 °F /  18.6 °C 61.2 °F /  16.2 °C 29.8in /  1008.5hPa NNE 2mph /  3.2km/h 9mph /  14.5km/h 86% 0in /  0.0mm 912 W/m2
12:01 66.4 °F /  19.1 °C 62.1 °F /  16.7 °C 29.8in /  1008.5hPa ENE 4mph /  6.4km/h 4mph /  6.4km/h 86% 0in /  0.0mm 946 W/m2
12:06 66.7 °F /  19.3 °C 61.3 °F /  16.3 °C 29.8in /  1008.1hPa NW 6.9mph /  11.1km/h 7mph /  11.3km/h 83% 0in /  0.0mm 904 W/m2
12:11 66.9 °F /  19.4 °C 61.2 °F /  16.2 °C 29.8in /  1008.5hPa North 2mph /  3.2km/h 12mph /  19.3km/h 82% 0in /  0.0mm 918 W/m2
12:16 67.3 °F /  19.6 °C 61.2 °F /  16.2 °C 29.8in /  1008.1hPa Calm   7mph /  11.3km/h 81% 0in /  0.0mm 1076 W/m2
12:21 67.5 °F /  19.7 °C 61.2 °F /  16.2 °C 29.8in /  1008.1hPa WNW 4.9mph /  7.9km/h 6mph /  9.7km/h 80% 0in /  0.0mm 1007 W/m2
12:26 67.6 °F /  19.8 °C 61.5 °F /  16.4 °C 29.8in /  1008.1hPa NW 4mph /  6.4km/h 7mph /  11.3km/h 81% 0in /  0.0mm 355 W/m2
12:31 67.6 °F /  19.8 °C 61.2 °F /  16.2 °C 29.8in /  1008.1hPa WNW 6.9mph /  11.1km/h 11mph /  17.7km/h 80% 0in /  0.0mm 276 W/m2
12:36 67.5 °F /  19.7 °C 61.2 °F /  16.2 °C 29.8in /  1008.1hPa WSW 4mph /  6.4km/h 6mph /  9.7km/h 80% 0in /  0.0mm 225 W/m2
12:41 67.1 °F /  19.5 °C 60.8 °F /  16 °C 29.8in /  1008.5hPa NW 4mph /  6.4km/h 5mph /  8km/h 80% 0in /  0.0mm 1065 W/m2
12:46 67.5 °F /  19.7 °C 60.8 °F /  16 °C 29.8in /  1008.5hPa NNW 2mph /  3.2km/h 4mph /  6.4km/h 79% 0in /  0.0mm 1014 W/m2
12:51 68.4 °F /  20.2 °C 60.8 °F /  16 °C 29.8in /  1008.5hPa NW 6mph /  9.7km/h 12mph /  19.3km/h 77% 0in /  0.0mm 1146 W/m2
12:56 68.5 °F /  20.3 °C 60.3 °F /  15.7 °C 29.8in /  1008.5hPa WSW 8.1mph /  13km/h 8mph /  12.9km/h 75% 0in /  0.0mm 1109 W/m2
13:01 68.5 °F /  20.3 °C 59.9 °F /  15.5 °C 29.8in /  1008.5hPa WNW 8.9mph /  14.3km/h 12mph /  19.3km/h 74% 0in /  0.0mm 1027 W/m2
13:06 68.7 °F /  20.4 °C 59.7 °F /  15.4 °C 29.8in /  1008.5hPa SSE 4mph /  6.4km/h 7mph /  11.3km/h 73% 0in /  0.0mm 323 W/m2
13:11 68.7 °F /  20.4 °C 59 °F /  15 °C 29.8in /  1008.5hPa NNE 4mph /  6.4km/h 13mph /  20.9km/h 71% 0in /  0.0mm 575 W/m2
13:16 68.7 °F /  20.4 °C 59 °F /  15 °C 29.8in /  1008.8hPa ESE 2.9mph /  4.7km/h 9mph /  14.5km/h 71% 0in /  0.0mm 654 W/m2
13:21 68.7 °F /  20.4 °C 58.5 °F /  14.7 °C 29.8in /  1008.8hPa WNW 0.9mph /  1.4km/h 13mph /  20.9km/h 70% 0in /  0.0mm 469 W/m2
13:26 68.5 °F /  20.3 °C 59.2 °F /  15.1 °C 29.8in /  1008.8hPa NW 2.9mph /  4.7km/h 11mph /  17.7km/h 72% 0in /  0.0mm 471 W/m2
13:31 68.5 °F /  20.3 °C 59.2 °F /  15.1 °C 29.8in /  1008.8hPa North 10.1mph /  16.3km/h 10mph /  16.1km/h 72% 0in /  0.0mm 427 W/m2
13:36 68.2 °F /  20.1 °C 58.1 °F /  14.5 °C 29.8in /  1008.8hPa East 2.9mph /  4.7km/h 5mph /  8km/h 70% 0in /  0.0mm 545 W/m2
13:41 68.4 °F /  20.2 °C 58.3 °F /  14.6 °C 29.8in /  1009.1hPa WSW 8.9mph /  14.3km/h 15mph /  24.1km/h 70% 0in /  0.0mm 367 W/m2
13:46 68.2 °F /  20.1 °C 57.6 °F /  14.2 °C 29.8in /  1008.8hPa North 2mph /  3.2km/h 9mph /  14.5km/h 69% 0in /  0.0mm 473 W/m2
13:51 68.2 °F /  20.1 °C 58.1 °F /  14.5 °C 29.8in /  1009.1hPa NNW 13mph /  20.9km/h 16mph /  25.7km/h 70% 0in /  0.0mm 520 W/m2
13:56 68.2 °F /  20.1 °C 58.1 °F /  14.5 °C 29.8in /  1009.1hPa Calm   5mph /  8km/h 70% 0in /  0.0mm 568 W/m2
14:01 68.4 °F /  20.2 °C 57.7 °F /  14.3 °C 29.8in /  1008.8hPa Calm   16mph /  25.7km/h 69% 0in /  0.0mm 499 W/m2
14:06 68.4 °F /  20.2 °C 56.5 °F /  13.6 °C 29.8in /  1009.1hPa West 4mph /  6.4km/h 9mph /  14.5km/h 66% 0in /  0.0mm 536 W/m2
14:12 68.5 °F /  20.3 °C 57.6 °F /  14.2 °C 29.8in /  1009.1hPa WSW 2mph /  3.2km/h 7mph /  11.3km/h 68% 0in /  0.0mm 404 W/m2
14:17 68.4 °F /  20.2 °C 56.5 °F /  13.6 °C 29.8in /  1009.1hPa North 2mph /  3.2km/h 3mph /  4.8km/h 66% 0in /  0.0mm 506 W/m2
14:22 68.4 °F /  20.2 °C 57 °F /  13.9 °C 29.8in /  1009.1hPa SSW 2.9mph /  4.7km/h 8mph /  12.9km/h 67% 0in /  0.0mm 455 W/m2
14:27 68.4 °F /  20.2 °C 56.5 °F /  13.6 °C 29.8in /  1009.1hPa NNW 2mph /  3.2km/h 4mph /  6.4km/h 66% 0in /  0.0mm 374 W/m2
14:32 68.4 °F /  20.2 °C 57 °F /  13.9 °C 29.8in /  1009.1hPa East 2mph /  3.2km/h 5mph /  8km/h 67% 0in /  0.0mm 371 W/m2
14:37 68.7 °F /  20.4 °C 56.8 °F /  13.8 °C 29.8in /  1009.1hPa WNW 4mph /  6.4km/h 8mph /  12.9km/h 66% 0in /  0.0mm 512 W/m2
14:42 68.9 °F /  20.5 °C 57.6 °F /  14.2 °C 29.8in /  1009.1hPa North 6.9mph /  11.1km/h 7mph /  11.3km/h 67% 0in /  0.0mm 508 W/m2
14:47 69.1 °F /  20.6 °C 56.8 °F /  13.8 °C 29.8in /  1009.1hPa NNW 2mph /  3.2km/h 5mph /  8km/h 65% 0in /  0.0mm 454 W/m2
14:52 69.1 °F /  20.6 °C 57.2 °F /  14 °C 29.8in /  1009.1hPa NW 2mph /  3.2km/h 11mph /  17.7km/h 66% 0in /  0.0mm 529 W/m2
14:57 69.1 °F /  20.6 °C 57.2 °F /  14 °C 29.8in /  1009.5hPa West 2.9mph /  4.7km/h 8mph /  12.9km/h 66% 0in /  0.0mm 410 W/m2
15:02 69.1 °F /  20.6 °C 57.7 °F /  14.3 °C 29.8in /  1009.5hPa SW 0.9mph /  1.4km/h 9mph /  14.5km/h 67% 0in /  0.0mm 371 W/m2
15:07 69.1 °F /  20.6 °C 57.7 °F /  14.3 °C 29.8in /  1009.5hPa East 4mph /  6.4km/h 4mph /  6.4km/h 67% 0in /  0.0mm 404 W/m2
15:12 69.1 °F /  20.6 °C 57.2 °F /  14 °C 29.8in /  1009.5hPa ENE 4mph /  6.4km/h 4mph /  6.4km/h 66% 0in /  0.0mm 373 W/m2
15:17 69.1 °F /  20.6 °C 56.8 °F /  13.8 °C 29.8in /  1009.5hPa SW 2.9mph /  4.7km/h 5mph /  8km/h 65% 0in /  0.0mm 410 W/m2
15:22 69.1 °F /  20.6 °C 56.8 °F /  13.8 °C 29.8in /  1009.5hPa West 6mph /  9.7km/h 10mph /  16.1km/h 65% 0in /  0.0mm 492 W/m2
15:27 68.9 °F /  20.5 °C 57 °F /  13.9 °C 29.8in /  1009.1hPa NNW 8.9mph /  14.3km/h 11mph /  17.7km/h 66% 0in /  0.0mm 566 W/m2
15:32 69.1 °F /  20.6 °C 56.8 °F /  13.8 °C 29.8in /  1009.5hPa ESE 2mph /  3.2km/h 3mph /  4.8km/h 65% 0in /  0.0mm 490 W/m2
15:37 69.3 °F /  20.7 °C 57.4 °F /  14.1 °C 29.8in /  1009.1hPa WNW 0.9mph /  1.4km/h 11mph /  17.7km/h 66% 0in /  0.0mm 323 W/m2
15:42 69.1 °F /  20.6 °C 57.2 °F /  14 °C 29.8in /  1009.5hPa NNW 2mph /  3.2km/h 12mph /  19.3km/h 66% 0in /  0.0mm 318 W/m2
15:47 69.1 °F /  20.6 °C 58.5 °F /  14.7 °C 29.8in /  1009.5hPa NW 0.9mph /  1.4km/h 6mph /  9.7km/h 69% 0in /  0.0mm 371 W/m2
15:52 68.9 °F /  20.5 °C 58.3 °F /  14.6 °C 29.8in /  1009.8hPa WNW 0.9mph /  1.4km/h 9mph /  14.5km/h 69% 0in /  0.0mm 376 W/m2
15:57 69.1 °F /  20.6 °C 58.8 °F /  14.9 °C 29.8in /  1009.8hPa NNW 2.9mph /  4.7km/h 6mph /  9.7km/h 70% 0in /  0.0mm 388 W/m2
16:02 69.3 °F /  20.7 °C 58.6 °F /  14.8 °C 29.8in /  1009.8hPa WSW 2.9mph /  4.7km/h 8mph /  12.9km/h 69% 0in /  0.0mm 411 W/m2
16:07 69.1 °F /  20.6 °C 58.5 °F /  14.7 °C 29.8in /  1009.8hPa NNW 4mph /  6.4km/h 5mph /  8km/h 69% 0in /  0.0mm 552 W/m2
16:12 69.1 °F /  20.6 °C 58.5 °F /  14.7 °C 29.8in /  1009.8hPa NNE 2mph /  3.2km/h 9mph /  14.5km/h 69% 0in /  0.0mm 436 W/m2
16:17 69.1 °F /  20.6 °C 58.1 °F /  14.5 °C 29.8in /  1009.8hPa East 2mph /  3.2km/h 7mph /  11.3km/h 68% 0in /  0.0mm 406 W/m2
16:22 69.1 °F /  20.6 °C 58.1 °F /  14.5 °C 29.8in /  1009.8hPa NW 0.9mph /  1.4km/h 4mph /  6.4km/h 68% 0in /  0.0mm 339 W/m2
16:27 69.3 °F /  20.7 °C 57.9 °F /  14.4 °C 29.8in /  1010.2hPa ENE 2.9mph /  4.7km/h 5mph /  8km/h 67% 0in /  0.0mm 520 W/m2
16:32 69.3 °F /  20.7 °C 55.2 °F /  12.9 °C 29.8in /  1009.8hPa WNW 6.9mph /  11.1km/h 11mph /  17.7km/h 61% 0in /  0.0mm 417 W/m2
16:37 69.3 °F /  20.7 °C 55.2 °F /  12.9 °C 29.8in /  1009.8hPa North 6mph /  9.7km/h 6mph /  9.7km/h 61% 0in /  0.0mm 471 W/m2
16:42 69.4 °F /  20.8 °C 55.9 °F /  13.3 °C 29.8in /  1009.8hPa West 4mph /  6.4km/h 7mph /  11.3km/h 62% 0in /  0.0mm 501 W/m2
16:47 69.4 °F /  20.8 °C 55.9 °F /  13.3 °C 29.8in /  1009.8hPa North 0.9mph /  1.4km/h 3mph /  4.8km/h 62% 0in /  0.0mm 561 W/m2
16:52 69.8 °F /  21 °C 55.8 °F /  13.2 °C 29.8in /  1010.2hPa NNE 2mph /  3.2km/h 8mph /  12.9km/h 61% 0in /  0.0mm 563 W/m2
16:57 70 °F /  21.1 °C 55.9 °F /  13.3 °C 29.8in /  1009.8hPa Calm   2mph /  3.2km/h 61% 0in /  0.0mm 522 W/m2
17:02 70.3 °F /  21.3 °C 55.8 °F /  13.2 °C 29.8in /  1009.8hPa WNW 8.1mph /  13km/h 8mph /  12.9km/h 60% 0in /  0.0mm 445 W/m2
17:07 70.3 °F /  21.3 °C 55.4 °F /  13 °C 29.8in /  1009.8hPa NNE 2mph /  3.2km/h 4mph /  6.4km/h 59% 0in /  0.0mm 659 W/m2
17:12 70.3 °F /  21.3 °C 56.3 °F /  13.5 °C 29.8in /  1009.8hPa ENE 2mph /  3.2km/h 6mph /  9.7km/h 61% 0in /  0.0mm 292 W/m2
17:17 70.2 °F /  21.2 °C 55.6 °F /  13.1 °C 29.8in /  1009.8hPa SW 0.9mph /  1.4km/h 6mph /  9.7km/h 60% 0in /  0.0mm 297 W/m2
17:22 70 °F /  21.1 °C 55.4 °F /  13 °C 29.8in /  1009.8hPa NE 0.9mph /  1.4km/h 4mph /  6.4km/h 60% 0in /  0.0mm 304 W/m2
17:27 70 °F /  21.1 °C 56.3 °F /  13.5 °C 29.8in /  1009.8hPa NE 0.9mph /  1.4km/h 2mph /  3.2km/h 62% 0in /  0.0mm 276 W/m2
17:32 70 °F /  21.1 °C 55.9 °F /  13.3 °C 29.8in /  1010.2hPa South 2mph /  3.2km/h 9mph /  14.5km/h 61% 0in /  0.0mm 283 W/m2
17:37 69.6 °F /  20.9 °C 54.7 °F /  12.6 °C 29.8in /  1010.2hPa WSW 0.9mph /  1.4km/h 4mph /  6.4km/h 59% 0in /  0.0mm 253 W/m2
17:42 69.6 °F /  20.9 °C 55 °F /  12.8 °C 29.8in /  1010.2hPa Calm   9mph /  14.5km/h 60% 0in /  0.0mm 274 W/m2
17:47 69.6 °F /  20.9 °C 55 °F /  12.8 °C 29.8in /  1010.2hPa Calm   2mph /  3.2km/h 60% 0in /  0.0mm 213 W/m2
17:52 69.6 °F /  20.9 °C 55 °F /  12.8 °C 29.8in /  1010.2hPa West 2mph /  3.2km/h 4mph /  6.4km/h 60% 0in /  0.0mm 183 W/m2
17:57 69.4 °F /  20.8 °C 55.9 °F /  13.3 °C 29.8in /  1010.2hPa ESE 2mph /  3.2km/h 4mph /  6.4km/h 62% 0in /  0.0mm 171 W/m2
18:02 69.3 °F /  20.7 °C 57 °F /  13.9 °C 29.8in /  1010.2hPa SW 0.9mph /  1.4km/h 2mph /  3.2km/h 65% 0in /  0.0mm 162 W/m2
18:07 69.1 °F /  20.6 °C 55 °F /  12.8 °C 29.8in /  1010.2hPa SW 2mph /  3.2km/h 5mph /  8km/h 61% 0in /  0.0mm 160 W/m2
18:12 69.1 °F /  20.6 °C 57.2 °F /  14 °C 29.8in /  1010.2hPa Calm   1mph /  1.6km/h 66% 0in /  0.0mm 158 W/m2
18:17 68.9 °F /  20.5 °C 56.3 °F /  13.5 °C 29.8in /  1010.2hPa Calm   1mph /  1.6km/h 64% 0in /  0.0mm 169 W/m2
18:22 68.9 °F /  20.5 °C 57.9 °F /  14.4 °C 29.8in /  1010.2hPa NW 2.9mph /  4.7km/h 3mph /  4.8km/h 68% 0in /  0.0mm 125 W/m2
18:27 68.7 °F /  20.4 °C 57.7 °F /  14.3 °C 29.8in /  1010.2hPa Calm     68% 0in /  0.0mm 120 W/m2
18:32 68.7 °F /  20.4 °C 56.8 °F /  13.8 °C 29.8in /  1010.2hPa North 0.9mph /  1.4km/h 1mph /  1.6km/h 66% 0in /  0.0mm 120 W/m2
18:37 68.5 °F /  20.3 °C 57.6 °F /  14.2 °C 29.8in /  1010.2hPa Calm     68% 0in /  0.0mm 135 W/m2
18:42 68.7 °F /  20.4 °C 56.5 °F /  13.6 °C 29.8in /  1010.2hPa North 0.9mph /  1.4km/h 1mph /  1.6km/h 65% 0in /  0.0mm 186 W/m2
18:47 68.7 °F /  20.4 °C 56.8 °F /  13.8 °C 29.8in /  1010.2hPa Calm   2mph /  3.2km/h 66% 0in /  0.0mm 109 W/m2
18:52 68.9 °F /  20.5 °C 57.9 °F /  14.4 °C 29.8in /  1010.2hPa NW 0.9mph /  1.4km/h 2mph /  3.2km/h 68% 0in /  0.0mm 114 W/m2
18:57 68.9 °F /  20.5 °C 57.6 °F /  14.2 °C 29.8in /  1010.2hPa Calm   1mph /  1.6km/h 67% 0in /  0.0mm 118 W/m2
Juneau County Weather
Compliments of Weather Underground - 4 mb